PWSweather.com
Personal Weather Stations
Station Observations

AwhituWaiuku, CA 268400

Lat: -37.058, Lon: -174.6346

Elevation: 250

Station Type: Personal

http://www.weather-display.com/windy/gb/grahamsbeach.htm

Latest ConditionsUpdated 1:30:04 PM GMT-12:48 Wednesday, Jan 16, 2019
Currently Today's Max Today's Min Today's Average
Temperature 72.5°F22.5°C 73.5°F23.1°C 64.1°F17.8°C 66.8°F19.3°C
Dew Point 62.6°F17.0°C 64.3°F17.9°C 60.1°F15.6°C 61.6°F16.4°C
Winds 16.1 mph SW25.9 kmh SW 19.6 mph -31.5 kmh - - 13.1 mph 21.1 kmh
Wind Gusts 21.9 mph35.2 kmh 27.6 mph44.4 kmh - -
Humidity 71% 90% 71% 84%
Pressure 29.79 in1008.8 mb 29.81 in1009.5 mb 29.72 in1006.4 mb -
Hour Temp Dew Point Humidity Winds Wind Gusts Pressure Precip Precip Rate Daily Precip Total
01:30 PM 72.5°F22.5°C 62.6°F17.0°C 71% 16.1 mph SW25.9 kmh SW 21.9 mph35.2 kmh 29.79 in1008.8 mb - 0.00 in0.0 mm 0.00 in0.0 mm
01:00 PM 73.5°F23.1°C 64.3°F17.9°C 73% 16.1 mph SW25.9 kmh SW 20.7 mph33.3 kmh 29.79 in1008.8 mb - 0.00 in0.0 mm 0.00 in0.0 mm
12:30 PM 72.4°F22.4°C 64.0°F17.8°C 75% 16.1 mph SW25.9 kmh SW 24.2 mph38.9 kmh 29.80 in1009.1 mb - 0.00 in0.0 mm 0.00 in0.0 mm
12:00 PM 72.0°F22.2°C 63.3°F17.4°C 74% 12.7 mph WSW20.4 kmh WSW 19.6 mph31.5 kmh 29.80 in1009.1 mb - 0.00 in0.0 mm 0.00 in0.0 mm
11:30 AM 72.5°F22.5°C 64.1°F17.8°C 75% 12.7 mph SW20.4 kmh SW 16.1 mph25.9 kmh 29.81 in1009.5 mb - 0.00 in0.0 mm 0.00 in0.0 mm
11:00 AM 71.0°F21.7°C 63.4°F17.4°C 77% 10.4 mph SSW16.7 kmh SSW 16.1 mph25.9 kmh 29.81 in1009.5 mb - 0.00 in0.0 mm 0.00 in0.0 mm
10:30 AM 68.4°F20.2°C 61.7°F16.5°C 79% 12.7 mph SW20.4 kmh SW 19.6 mph31.5 kmh 29.81 in1009.5 mb - 0.00 in0.0 mm 0.00 in0.0 mm
10:00 AM 67.4°F19.7°C 61.4°F16.3°C 81% 9.2 mph S14.8 kmh S 11.5 mph18.5 kmh 29.81 in1009.5 mb - 0.00 in0.0 mm 0.00 in0.0 mm
09:30 AM 66.9°F19.4°C 61.2°F16.2°C 82% 11.5 mph S18.5 kmh S 17.3 mph27.8 kmh 29.81 in1009.5 mb - 0.00 in0.0 mm 0.00 in0.0 mm
09:00 AM 66.1°F18.9°C 61.1°F16.2°C 84% 11.5 mph SW18.5 kmh SW 15.0 mph24.1 kmh 29.80 in1009.1 mb - 0.00 in0.0 mm 0.00 in0.0 mm
08:30 AM 65.8°F18.8°C 61.2°F16.2°C 85% 12.7 mph S20.4 kmh S 16.1 mph25.9 kmh 29.80 in1009.1 mb - 0.00 in0.0 mm 0.00 in0.0 mm
08:00 AM 65.5°F18.6°C 61.2°F16.2°C 86% 16.1 mph SSW25.9 kmh SSW 20.7 mph33.3 kmh 29.79 in1008.8 mb - 0.00 in0.0 mm 0.00 in0.0 mm
07:30 AM 65.2°F18.4°C 60.9°F16.1°C 86% 15.0 mph SSW24.1 kmh SSW 21.9 mph35.2 kmh 29.78 in1008.5 mb - 0.00 in0.0 mm 0.00 in0.0 mm
07:00 AM 65.2°F18.4°C 61.2°F16.2°C 87% 17.3 mph SSW27.8 kmh SSW 21.9 mph35.2 kmh 29.77 in1008.1 mb - 0.00 in0.0 mm 0.00 in0.0 mm
06:30 AM 65.1°F18.4°C 61.1°F16.2°C 87% 15.0 mph SW24.1 kmh SW 18.4 mph29.6 kmh 29.76 in1007.8 mb - 0.00 in0.0 mm 0.00 in0.0 mm
06:00 AM 65.0°F18.3°C 60.7°F15.9°C 86% 11.5 mph SW18.5 kmh SW 21.9 mph35.2 kmh 29.75 in1007.5 mb - 0.00 in0.0 mm 0.00 in0.0 mm
05:30 AM 64.4°F18.0°C 60.1°F15.6°C 86% 15.0 mph SW24.1 kmh SW 19.6 mph31.5 kmh 29.75 in1007.5 mb - 0.00 in0.0 mm 0.00 in0.0 mm
05:00 AM 64.6°F18.1°C 60.9°F16.1°C 88% 8.1 mph S13.0 kmh S 18.4 mph29.6 kmh 29.74 in1007.1 mb - 0.00 in0.0 mm 0.00 in0.0 mm
04:30 AM 64.3°F17.9°C 61.3°F16.3°C 90% 10.4 mph S16.7 kmh S 13.8 mph22.2 kmh 29.74 in1007.1 mb - 0.00 in0.0 mm 0.00 in0.0 mm
04:00 AM 64.1°F17.8°C 60.8°F16.0°C 89% 9.2 mph S14.8 kmh S 13.8 mph22.2 kmh 29.73 in1006.8 mb - 0.00 in0.0 mm 0.00 in0.0 mm
03:30 AM 64.3°F17.9°C 61.0°F16.1°C 89% 8.1 mph S13.0 kmh S 12.7 mph20.4 kmh 29.72 in1006.4 mb - 0.00 in0.0 mm 0.00 in0.0 mm
03:00 AM 64.4°F18.0°C 60.8°F16.0°C 88% 8.1 mph S13.0 kmh S 8.1 mph13.0 kmh 29.72 in1006.4 mb - 0.00 in0.0 mm 0.00 in0.0 mm
02:30 AM 64.6°F18.1°C 61.0°F16.1°C 88% 12.7 mph SSW20.4 kmh SSW 18.4 mph29.6 kmh 29.72 in1006.4 mb - 0.00 in0.0 mm 0.00 in0.0 mm
02:00 AM 64.5°F18.1°C 60.9°F16.1°C 88% 11.5 mph S18.5 kmh S 19.6 mph31.5 kmh 29.72 in1006.4 mb - 0.00 in0.0 mm 0.00 in0.0 mm
01:30 AM 64.8°F18.2°C 61.2°F16.2°C 88% 13.8 mph S22.2 kmh S 18.4 mph29.6 kmh 29.73 in1006.8 mb - 0.00 in0.0 mm 0.00 in0.0 mm
01:00 AM 65.2°F18.4°C 61.2°F16.2°C 87% 19.6 mph S31.5 kmh S 27.6 mph44.4 kmh 29.73 in1006.8 mb - 0.00 in0.0 mm 0.00 in0.0 mm
12:30 AM 65.2°F18.4°C 61.2°F16.2°C 87% 19.6 mph S31.5 kmh S 21.9 mph35.2 kmh 29.74 in1007.1 mb - 0.00 in0.0 mm 0.00 in0.0 mm
12:00 AM 65.5°F18.6°C 60.9°F16.1°C 85% 12.7 mph SSW20.4 kmh SSW 15.0 mph24.1 kmh 29.74 in1007.1 mb - 0.00 in0.0 mm 0.00 in0.0 mm